Time;durP1;ratioP1;P1;durP2;ratioP2;P2;SDS_P1;SDS_P2;PMS_P1;PMS_P2;Temp;Humidity;BMP_temperature;BMP_pressure;BME280_temperature;BME280_humidity;BME280_pressure;Samples;Min_cycle;Max_cycle;Signal;HPM_P1;HPM_P2
2021/01/03 00:00:24;;;;;;;7.78;2.78;;;12.70;99.90;;;;;;5047415;28;20056;-50
2021/01/03 00:02:54;;;;;;;15.10;4.72;;;12.80;99.90;;;;;;5095382;28;20052;-50
2021/01/03 00:05:25;;;;;;;13.30;4.88;;;12.80;99.90;;;;;;5070136;28;20055;-49
2021/01/03 00:07:53;;;;;;;7.68;4.10;;;12.70;99.90;;;;;;5058547;28;20132;-48
2021/01/03 00:10:22;;;;;;;6.78;3.33;;;12.60;99.90;;;;;;5048842;28;20150;-46
2021/01/03 00:12:50;;;;;;;10.68;4.72;;;12.60;99.90;;;;;;5078335;28;20403;-47
2021/01/03 00:15:20;;;;;;;12.43;4.15;;;12.60;99.90;;;;;;5070358;28;20044;-46
2021/01/03 00:17:48;;;;;;;10.95;4.03;;;12.70;99.90;;;;;;5058176;28;20040;-46
2021/01/03 00:20:24;;;;;;;11.50;3.83;;;12.70;99.90;;;;;;5064635;28;20048;-48
2021/01/03 00:22:52;;;;;;;7.90;4.40;;;12.80;99.90;;;;;;5096120;28;20516;-46
2021/01/03 00:25:26;;;;;;;12.82;5.18;;;12.80;99.90;;;;;;5049034;28;20127;-47
2021/01/03 00:27:54;;;;;;;10.23;5.93;;;12.80;99.90;;;;;;5096197;28;20048;-50
2021/01/03 00:30:24;;;;;;;13.82;5.68;;;12.80;99.90;;;;;;5068606;28;20048;-50
2021/01/03 00:32:52;;;;;;;12.00;6.68;;;12.80;99.90;;;;;;5041176;28;20067;-49
2021/01/03 00:35:27;;;;;;;16.20;10.50;;;12.90;99.90;;;;;;5065069;28;20076;-51
2021/01/03 00:37:58;;;;;;;23.48;11.40;;;12.90;99.90;;;;;;5061150;28;20044;-48
2021/01/03 00:40:26;;;;;;;19.20;7.10;;;12.80;99.90;;;;;;5084104;28;20045;-50
2021/01/03 00:42:53;;;;;;;12.63;6.40;;;12.70;99.90;;;;;;5077798;28;20096;-48
2021/01/03 00:45:24;;;;;;;13.73;5.78;;;12.70;99.90;;;;;;5049130;28;20052;-49
2021/01/03 00:47:51;;;;;;;21.70;6.50;;;12.70;99.90;;;;;;5077990;28;20516;-47
2021/01/03 00:50:19;;;;;;;11.55;5.53;;;12.70;99.90;;;;;;5052876;28;20497;-52
2021/01/03 00:52:46;;;;;;;12.60;4.75;;;12.70;99.90;;;;;;5040630;28;20486;-48
2021/01/03 00:55:14;;;;;;;8.50;4.97;;;12.70;99.90;;;;;;5064508;28;20054;-46
2021/01/03 00:57:44;;;;;;;11.63;4.95;;;12.70;99.90;;;;;;5070677;28;20131;-46
2021/01/03 01:00:27;;;;;;;13.35;6.30;;;12.70;99.90;;;;;;5023330;28;20053;-49
2021/01/03 01:02:54;;;;;;;15.73;5.65;;;12.70;99.90;;;;;;5079756;28;20491;-47
2021/01/03 01:05:23;;;;;;;11.35;4.53;;;12.60;99.90;;;;;;5048196;28;20131;-48
2021/01/03 01:07:51;;;;;;;12.75;4.85;;;12.70;99.90;;;;;;5076936;28;20127;-48
2021/01/03 01:10:28;;;;;;;17.88;5.78;;;12.70;99.90;;;;;;5069369;28;20401;-46
2021/01/03 01:13:00;;;;;;;10.75;4.80;;;12.70;99.90;;;;;;5057082;28;20478;-47
2021/01/03 01:15:30;;;;;;;9.95;5.43;;;12.70;99.90;;;;;;5056776;28;20052;-47
2021/01/03 01:18:02;;;;;;;14.10;5.07;;;12.80;99.90;;;;;;5024131;28;20040;-47
2021/01/03 01:20:31;;;;;;;11.15;5.50;;;12.70;99.90;;;;;;5065431;28;20044;-46
2021/01/03 01:22:59;;;;;;;16.23;4.93;;;12.70;99.90;;;;;;5076864;28;20032;-49
2021/01/03 01:25:29;;;;;;;15.93;4.93;;;12.70;99.90;;;;;;5034771;28;20445;-52
2021/01/03 01:27:57;;;;;;;11.55;5.30;;;12.80;99.90;;;;;;5054841;28;20045;-46
2021/01/03 01:30:26;;;;;;;14.07;5.50;;;12.70;99.90;;;;;;5078868;28;20076;-49
2021/01/03 01:32:54;;;;;;;11.88;5.15;;;12.80;99.90;;;;;;5058762;28;20052;-47
2021/01/03 01:35:25;;;;;;;11.75;4.93;;;12.80;99.90;;;;;;5063411;28;20072;-47
2021/01/03 01:37:53;;;;;;;10.07;5.38;;;12.80;99.90;;;;;;5085106;28;20070;-46
2021/01/03 01:40:25;;;;;;;18.80;5.07;;;12.80;99.90;;;;;;5067141;28;20193;-47
2021/01/03 01:42:53;;;;;;;15.52;5.25;;;12.80;99.90;;;;;;5055598;28;20516;-47
2021/01/03 01:45:25;;;;;;;12.02;5.15;;;12.80;99.90;;;;;;5047122;28;20562;-47
2021/01/03 01:47:59;;;;;;;18.45;6.55;;;12.70;99.90;;;;;;5060107;28;20071;-48
2021/01/03 01:50:50;;;;;;;14.65;5.75;;;12.70;99.90;;;;;;5085569;28;20110;-47
2021/01/03 01:53:28;;;;;;;12.98;6.03;;;12.70;99.90;;;;;;5041305;28;20506;-46
2021/01/03 01:56:23;;;;;;;20.05;5.18;;;12.60;99.90;;;;;;5061115;28;20052;-48
2021/01/03 01:59:09;;;;;;;14.30;5.05;;;12.50;99.90;;;;;;5077419;28;20628;-48
2021/01/03 02:02:07;;;;;;;13.77;6.55;;;12.50;99.90;;;;;;5061260;28;20414;-46
2021/01/03 02:04:34;;;;;;;;;;;12.30;99.90;;;;;;5088392;28;20079;-46
2021/01/03 02:07:05;;;;;;;;;;;12.30;99.90;;;;;;5060514;28;19920;-51
2021/01/03 02:09:43;;;;;;;6.97;4.55;;;12.30;99.90;;;;;;5061569;28;19920;-47
2021/01/03 02:12:23;;;;;;;11.75;5.47;;;12.20;99.90;;;;;;5073312;28;20073;-47
2021/01/03 02:14:51;;;;;;;10.40;4.35;;;12.30;99.90;;;;;;5052869;28;20051;-47
2021/01/03 02:17:18;;;;;;;11.32;4.10;;;12.20;99.90;;;;;;5058226;28;20052;-48
2021/01/03 02:19:45;;;;;;;8.95;4.35;;;12.30;99.90;;;;;;5061473;28;20052;-46
2021/01/03 02:22:28;;;;;;;9.15;4.57;;;12.30;99.90;;;;;;5073635;28;20060;-46
2021/01/03 02:25:03;;;;;;;15.48;5.60;;;12.30;99.90;;;;;;5069248;28;20052;-48
2021/01/03 02:27:47;;;;;;;16.88;3.95;;;12.30;99.90;;;;;;5073709;28;20177;-47
2021/01/03 02:30:17;;;;;;;7.80;3.65;;;12.30;99.90;;;;;;5079767;28;20048;-47
2021/01/03 02:32:49;;;;;;;9.45;4.28;;;12.30;99.90;;;;;;5059110;28;20402;-46
2021/01/03 02:35:19;;;;;;;19.77;4.75;;;12.30;99.90;;;;;;5085831;28;20052;-47
2021/01/03 02:37:50;;;;;;;13.77;5.00;;;12.30;99.90;;;;;;5039532;28;20406;-47
2021/01/03 02:40:23;;;;;;;9.98;4.05;;;12.40;99.90;;;;;;5029624;28;20055;-46
2021/01/03 02:42:50;;;;;;;13.07;5.05;;;12.40;99.90;;;;;;5075519;28;20086;-46
2021/01/03 02:45:36;;;;;;;12.32;4.38;;;12.50;99.90;;;;;;5050639;28;20050;-48
2021/01/03 02:48:09;;;;;;;10.05;3.72;;;12.50;99.90;;;;;;5022703;28;20044;-46
2021/01/03 02:50:37;;;;;;;13.73;4.95;;;12.50;99.90;;;;;;5046380;28;20486;-46
2021/01/03 02:53:04;;;;;;;11.95;3.50;;;12.50;99.90;;;;;;5053289;28;20080;-46
2021/01/03 02:55:31;;;;;;;6.60;3.63;;;12.50;99.90;;;;;;5033312;28;20049;-48
2021/01/03 02:57:59;;;;;;;10.07;5.28;;;12.50;99.90;;;;;;5055349;28;20083;-49
2021/01/03 03:00:30;;;;;;;15.07;4.28;;;12.50;99.90;;;;;;5066426;28;20048;-47
2021/01/03 03:02:58;;;;;;;16.15;4.03;;;12.50;99.90;;;;;;5072757;28;20139;-48
2021/01/03 03:05:25;;;;;;;21.70;5.13;;;12.50;99.90;;;;;;5063567;28;20037;-50
2021/01/03 03:07:52;;;;;;;13.32;4.65;;;12.50;99.90;;;;;;5075652;28;20055;-47
2021/01/03 03:10:21;;;;;;;12.75;3.78;;;12.50;99.90;;;;;;5066874;28;20070;-46
2021/01/03 03:12:55;;;;;;;13.05;4.25;;;12.50;99.90;;;;;;5054898;28;20047;-51
2021/01/03 03:15:24;;;;;;;9.07;4.53;;;12.60;99.90;;;;;;5049644;28;20413;-46
2021/01/03 03:17:52;;;;;;;9.07;3.25;;;12.60;99.90;;;;;;5038583;28;20048;-46
2021/01/03 03:20:20;;;;;;;6.38;3.15;;;12.50;99.90;;;;;;5062335;28;20454;-46
2021/01/03 03:22:48;;;;;;;7.00;2.63;;;12.50;99.90;;;;;;5058502;28;20048;-47
2021/01/03 03:25:16;;;;;;;8.10;2.65;;;12.50;99.90;;;;;;5067605;28;20040;-46
2021/01/03 03:27:43;;;;;;;6.00;3.05;;;12.40;99.90;;;;;;5055088;28;20049;-47
2021/01/03 03:30:13;;;;;;;6.05;2.83;;;12.50;99.90;;;;;;5044105;28;20048;-49
2021/01/03 03:32:41;;;;;;;15.43;3.70;;;12.40;99.90;;;;;;5093227;28;20092;-49
2021/01/03 03:35:09;;;;;;;11.60;3.28;;;12.40;99.90;;;;;;5086388;28;20166;-46
2021/01/03 03:37:39;;;;;;;10.38;3.63;;;12.40;99.90;;;;;;5055069;28;20079;-46
2021/01/03 03:40:07;;;;;;;10.50;2.65;;;12.40;99.90;;;;;;5027383;28;20052;-48
2021/01/03 03:42:34;;;;;;;7.72;2.92;;;12.40;99.90;;;;;;5035378;28;20159;-46
2021/01/03 03:45:02;;;;;;;8.25;3.97;;;12.40;99.90;;;;;;5057211;28;20448;-46
2021/01/03 03:47:30;;;;;;;10.13;2.38;;;12.40;99.90;;;;;;5074962;28;20076;-47
2021/01/03 03:49:57;;;;;;;9.50;3.72;;;12.40;99.90;;;;;;5068551;28;20466;-46
2021/01/03 03:52:24;;;;;;;15.32;2.72;;;12.40;99.90;;;;;;5055835;28;20045;-47
2021/01/03 03:54:51;;;;;;;7.07;2.75;;;12.40;99.90;;;;;;5077611;28;20445;-47
2021/01/03 03:57:19;;;;;;;8.32;2.55;;;12.40;99.90;;;;;;5056813;28;20504;-47
2021/01/03 03:59:46;;;;;;;12.57;3.67;;;12.30;99.90;;;;;;5086437;28;20054;-47
2021/01/03 04:02:13;;;;;;;5.97;3.42;;;12.20;99.90;;;;;;5057217;28;20083;-46
2021/01/03 04:04:40;;;;;;;11.57;3.55;;;12.20;99.90;;;;;;5061576;28;20050;-47
2021/01/03 04:07:07;;;;;;;9.00;3.63;;;12.20;99.90;;;;;;5075050;28;20052;-47
2021/01/03 04:09:34;;;;;;;7.68;2.92;;;12.20;99.90;;;;;;5089858;28;20448;-49
2021/01/03 04:12:02;;;;;;;6.68;2.92;;;12.20;99.90;;;;;;5062724;28;20441;-46
2021/01/03 04:14:29;;;;;;;5.45;2.20;;;12.20;99.90;;;;;;5047143;28;20037;-47
2021/01/03 04:16:59;;;;;;;5.28;2.55;;;12.20;99.90;;;;;;5073231;28;20055;-48
2021/01/03 04:19:27;;;;;;;10.38;2.78;;;12.10;99.90;;;;;;5071946;28;20581;-46
2021/01/03 04:21:57;;;;;;;7.65;2.97;;;12.10;99.90;;;;;;5063664;28;20127;-49
2021/01/03 04:24:25;;;;;;;4.65;2.13;;;12.00;99.90;;;;;;5081393;28;20493;-47
2021/01/03 04:26:56;;;;;;;6.97;2.20;;;12.10;99.90;;;;;;5072925;28;20048;-47
2021/01/03 04:29:24;;;;;;;8.57;3.03;;;12.10;99.90;;;;;;5055161;28;20052;-47
2021/01/03 04:31:56;;;;;;;7.70;2.28;;;12.10;99.90;;;;;;5081412;28;20051;-46
2021/01/03 04:34:24;;;;;;;4.18;3.08;;;12.00;99.90;;;;;;5080797;28;20191;-50
2021/01/03 04:36:53;;;;;;;3.92;2.10;;;12.00;99.90;;;;;;5055466;28;20059;-50
2021/01/03 04:39:21;;;;;;;6.88;2.42;;;12.00;99.90;;;;;;5089708;28;20076;-46
2021/01/03 04:41:55;;;;;;;8.27;2.65;;;12.00;99.90;;;;;;5047540;28;20045;-46
2021/01/03 04:44:46;;;;;;;7.18;3.58;;;11.90;99.90;;;;;;5030358;28;20055;-47
2021/01/03 04:47:38;;;;;;;9.90;2.55;;;11.90;99.90;;;;;;5058308;28;20437;-46
2021/01/03 04:50:44;;;;;;;7.85;2.30;;;11.80;99.90;;;;;;5071810;28;20094;-47
2021/01/03 04:53:35;;;;;;;9.23;2.70;;;11.90;99.90;;;;;;5023078;28;20041;-46
2021/01/03 04:56:11;;;;;;;15.65;4.22;;;11.80;99.90;;;;;;5062833;28;20056;-49
2021/01/03 04:58:54;;;;;;;10.48;2.65;;;11.80;99.90;;;;;;5060166;28;20115;-47
2021/01/03 05:01:46;;;;;;;6.53;2.60;;;11.80;99.90;;;;;;5068344;28;20067;-46
2021/01/03 05:05:07;;;;;;;8.98;3.67;;;11.70;99.90;;;;;;5054199;28;20052;-46
2021/01/03 05:07:42;;;;;;;7.85;2.40;;;11.70;99.90;;;;;;4955026;29;20055;-48
2021/01/03 05:10:16;;;;;;;5.40;2.28;;;11.70;99.90;;;;;;4978370;28;20383;-49
2021/01/03 05:13:05;;;;;;;4.65;2.15;;;11.70;99.90;;;;;;5047322;28;20083;-46
2021/01/03 05:15:35;;;;;;;4.80;1.70;;;11.70;99.90;;;;;;5066906;28;20051;-48
2021/01/03 05:18:06;;;;;;;5.18;2.45;;;11.60;99.90;;;;;;5057703;28;20060;-46
2021/01/03 05:20:33;;;;;;;7.85;2.38;;;11.60;99.90;;;;;;5085308;28;20048;-46
2021/01/03 05:23:17;;;;;;;8.43;3.17;;;11.60;99.90;;;;;;5039964;28;20045;-47
2021/01/03 05:25:46;;;;;;;7.55;2.22;;;11.60;99.90;;;;;;5083100;28;20047;-49
2021/01/03 05:28:32;;;;;;;6.18;2.40;;;11.50;99.90;;;;;;5093243;28;20117;-49
2021/01/03 05:31:16;;;;;;;12.35;3.53;;;11.40;99.90;;;;;;5045272;28;20074;-48
2021/01/03 05:34:10;;;;;;;10.20;2.92;;;11.50;99.90;;;;;;5076016;28;20058;-47
2021/01/03 05:36:52;;;;;;;7.28;3.47;;;11.40;99.90;;;;;;5046184;28;20052;-46
2021/01/03 05:39:22;;;;;;;10.13;2.42;;;11.30;99.90;;;;;;5079882;28;20182;-48
2021/01/03 05:42:06;;;;;;;10.60;2.58;;;11.30;99.90;;;;;;5056859;28;20048;-46
2021/01/03 05:44:40;;;;;;;11.68;3.10;;;11.30;99.90;;;;;;5053765;28;20052;-46
2021/01/03 05:47:18;;;;;;;12.73;2.67;;;11.20;99.90;;;;;;5077644;28;20052;-46
2021/01/03 05:50:05;;;;;;;8.55;2.40;;;11.20;99.90;;;;;;5045645;28;20486;-47
2021/01/03 05:52:35;;;;;;;5.97;2.63;;;11.20;99.90;;;;;;5052972;28;20049;-47
2021/01/03 05:55:06;;;;;;;6.07;2.60;;;11.20;99.90;;;;;;5042488;28;20444;-46
2021/01/03 05:57:35;;;;;;;7.57;2.05;;;11.20;99.90;;;;;;5053787;28;20057;-46
2021/01/03 06:00:21;;;;;;;3.58;2.50;;;11.20;99.90;;;;;;5059004;28;20084;-46
2021/01/03 06:02:49;;;;;;;10.95;3.20;;;11.20;99.90;;;;;;5054285;28;20059;-47
2021/01/03 06:05:21;;;;;;;6.90;2.10;;;11.20;99.90;;;;;;5062104;28;20048;-51
2021/01/03 06:08:18;;;;;;;8.00;2.30;;;11.10;99.90;;;;;;5094427;28;20048;-53
2021/01/03 06:10:45;;;;;;;7.55;3.63;;;11.20;99.90;;;;;;5082240;28;20048;-49
2021/01/03 06:13:14;;;;;;;9.38;2.28;;;11.20;99.90;;;;;;5074224;28;20044;-47
2021/01/03 06:15:58;;;;;;;10.60;2.47;;;11.20;99.90;;;;;;5046696;28;20047;-46
2021/01/03 06:18:48;;;;;;;9.07;2.40;;;11.20;99.90;;;;;;5092100;28;20512;-46
2021/01/03 06:21:21;;;;;;;8.13;2.50;;;11.10;99.90;;;;;;5081030;28;20067;-46
2021/01/03 06:24:13;;;;;;;9.15;3.58;;;11.10;99.90;;;;;;5077059;28;20052;-46
2021/01/03 06:26:52;;;;;;;12.63;2.30;;;11.20;99.90;;;;;;5079175;28;20502;-46
2021/01/03 06:29:26;;;;;;;8.35;2.60;;;11.40;99.90;;;;;;5087235;28;20067;-47
2021/01/03 06:32:34;;;;;;;9.60;2.13;;;11.70;99.90;;;;;;5061086;28;20053;-46
2021/01/03 06:35:13;;;;;;;9.65;3.00;;;12.00;99.90;;;;;;5060809;28;20044;-47
2021/01/03 06:37:59;;;;;;;7.95;2.42;;;12.50;99.90;;;;;;5052738;28;20049;-47
2021/01/03 06:40:40;;;;;;;11.90;2.72;;;12.90;99.90;;;;;;5066864;28;20525;-46
2021/01/03 06:43:45;;;;;;;12.20;2.90;;;13.30;99.90;;;;;;5055878;28;20062;-46
2021/01/03 06:46:37;;;;;;;11.70;3.80;;;13.70;99.90;;;;;;5027083;28;20066;-49
2021/01/03 06:49:25;;;;;;;11.73;4.47;;;14.20;99.90;;;;;;5068609;28;20098;-49
2021/01/03 06:52:46;;;;;;;10.13;3.47;;;14.50;99.90;;;;;;5060810;28;20055;-46
2021/01/03 06:55:28;;;;;;;11.27;5.50;;;15.10;99.60;;;;;;4963131;28;20140;-47
2021/01/03 06:58:08;;;;;;;9.60;3.30;;;15.50;98.40;;;;;;5075916;28;20048;-51
2021/01/03 07:01:00;;;;;;;11.40;4.13;;;16.10;97.30;;;;;;5065648;28;20044;-47
2021/01/03 07:03:33;;;;;;;6.15;2.72;;;16.70;96.40;;;;;;5039476;28;20068;-51
2021/01/03 07:06:09;;;;;;;9.45;2.70;;;16.90;95.90;;;;;;5060442;28;20051;-49
2021/01/03 07:08:51;;;;;;;10.25;3.10;;;17.30;94.90;;;;;;5057382;28;20044;-47
2021/01/03 07:11:59;;;;;;;12.80;2.83;;;17.90;94.00;;;;;;5067283;28;20062;-48
2021/01/03 07:14:29;;;;;;;6.70;2.65;;;18.90;92.30;;;;;;4984604;28;20050;-46
2021/01/03 07:17:15;;;;;;;4.93;2.45;;;19.40;91.20;;;;;;5058490;28;20052;-46
2021/01/03 07:20:01;;;;;;;9.10;3.20;;;19.70;90.10;;;;;;5086931;28;20052;-48
2021/01/03 07:22:53;;;;;;;6.00;3.10;;;20.00;88.60;;;;;;5055422;28;20285;-47
2021/01/03 07:25:46;;;;;;;5.85;2.00;;;20.20;88.00;;;;;;5080054;28;20060;-47
2021/01/03 07:28:17;;;;;;;13.98;5.05;;;20.30;87.20;;;;;;5056712;28;20043;-46
2021/01/03 07:30:51;;;;;;;7.45;3.00;;;20.50;86.40;;;;;;5081230;28;20056;-48
2021/01/03 07:33:36;;;;;;;5.93;2.72;;;20.50;85.40;;;;;;5073196;28;20501;-49
2021/01/03 07:36:23;;;;;;;7.88;3.67;;;20.40;85.00;;;;;;5052233;28;20052;-47
2021/01/03 07:39:11;;;;;;;7.03;2.88;;;20.30;85.30;;;;;;5060304;28;20036;-47
2021/01/03 07:41:39;;;;;;;10.52;3.95;;;20.10;85.10;;;;;;5064161;28;20520;-47
2021/01/03 07:44:32;;;;;;;11.35;4.45;;;20.60;85.50;;;;;;5039935;28;20123;-47
2021/01/03 07:47:06;;;;;;;9.00;4.55;;;21.30;84.10;;;;;;5052186;28;20049;-47
2021/01/03 07:49:38;;;;;;;11.10;2.72;;;21.20;83.40;;;;;;5047371;28;20048;-49
2021/01/03 07:52:36;;;;;;;12.80;4.00;;;21.30;83.00;;;;;;5058555;28;20036;-47
2021/01/03 07:55:05;;;;;;;6.40;2.90;;;20.90;83.70;;;;;;5071439;28;20044;-50
2021/01/03 07:57:32;;;;;;;10.35;3.20;;;21.00;84.70;;;;;;5022470;28;20072;-48
2021/01/03 08:00:00;;;;;;;8.73;2.47;;;20.60;85.50;;;;;;5060702;28;20045;-47
2021/01/03 08:02:34;;;;;;;7.72;3.03;;;20.00;87.50;;;;;;5096012;28;20044;-46
2021/01/03 08:05:01;;;;;;;9.95;5.18;;;19.80;88.80;;;;;;5071743;28;20126;-47
2021/01/03 08:07:29;;;;;;;9.73;5.05;;;19.40;89.20;;;;;;5059112;28;20449;-47
2021/01/03 08:10:11;;;;;;;9.10;4.15;;;19.30;90.00;;;;;;5063885;28;20487;-46
2021/01/03 08:12:48;;;;;;;11.50;4.00;;;18.60;90.70;;;;;;5038435;28;20053;-47
2021/01/03 08:15:27;;;;;;;8.23;3.50;;;17.80;92.30;;;;;;5081403;28;20379;-50
2021/01/03 08:18:19;;;;;;;13.32;4.55;;;17.60;92.80;;;;;;5096952;28;20556;-52
2021/01/03 08:20:49;;;;;;;11.13;3.25;;;17.40;93.80;;;;;;5051451;28;20525;-46
2021/01/03 08:23:22;;;;;;;7.63;3.22;;;17.50;94.00;;;;;;5076088;28;20080;-49
2021/01/03 08:26:21;;;;;;;8.10;2.83;;;17.70;93.90;;;;;;5067888;28;20049;-47
2021/01/03 08:29:05;;;;;;;11.55;4.00;;;17.60;94.00;;;;;;5079182;28;20513;-49
2021/01/03 08:31:33;;;;;;;9.60;2.60;;;17.30;94.50;;;;;;5061625;28;20174;-50
2021/01/03 08:34:01;;;;;;;11.65;3.13;;;17.30;94.90;;;;;;5071971;28;20048;-47
2021/01/03 08:36:36;;;;;;;10.95;3.08;;;17.50;94.90;;;;;;5060390;28;20052;-47
2021/01/03 08:39:07;;;;;;;5.47;2.65;;;17.40;95.10;;;;;;5089396;28;20079;-48
2021/01/03 08:41:40;;;;;;;14.90;4.25;;;17.20;95.60;;;;;;5049262;28;20041;-47
2021/01/03 08:44:07;;;;;;;9.52;3.20;;;17.10;95.90;;;;;;5063042;28;20052;-49
2021/01/03 08:46:36;;;;;;;13.25;3.42;;;16.90;96.20;;;;;;5087647;28;20130;-47
2021/01/03 08:49:07;;;;;;;9.52;3.28;;;16.80;96.70;;;;;;5070751;28;20131;-47
2021/01/03 08:51:35;;;;;;;7.95;3.30;;;16.90;96.90;;;;;;5064770;28;20149;-49
2021/01/03 08:54:07;;;;;;;10.18;3.40;;;16.80;97.10;;;;;;5046608;28;20135;-48
2021/01/03 08:56:49;;;;;;;12.18;3.28;;;16.90;97.20;;;;;;5063861;28;20051;-49
2021/01/03 08:59:18;;;;;;;14.43;3.83;;;17.00;97.30;;;;;;5071085;28;20136;-51
2021/01/03 09:01:46;;;;;;;9.35;3.33;;;17.10;96.90;;;;;;5060157;28;20049;-49
2021/01/03 09:04:20;;;;;;;5.53;2.65;;;16.90;96.50;;;;;;5059361;28;20509;-48
2021/01/03 09:07:00;;;;;;;15.63;4.40;;;17.00;96.80;;;;;;5069283;28;20044;-52
2021/01/03 09:09:30;;;;;;;6.78;2.35;;;17.00;97.00;;;;;;5068507;28;20068;-47
2021/01/03 09:12:05;;;;;;;16.58;2.88;;;16.90;97.00;;;;;;5058397;28;20486;-47
2021/01/03 09:14:53;;;;;;;8.05;2.38;;;17.00;97.30;;;;;;5060411;28;20102;-47
2021/01/03 09:17:30;;;;;;;6.72;2.83;;;16.90;97.10;;;;;;5073173;28;20048;-46
2021/01/03 09:20:19;;;;;;;5.68;3.03;;;16.90;97.40;;;;;;5068316;28;20090;-48
2021/01/03 09:22:50;;;;;;;8.50;3.28;;;17.10;97.60;;;;;;5035494;28;20517;-48
2021/01/03 09:25:32;;;;;;;14.85;4.68;;;17.00;97.00;;;;;;5060791;28;20406;-47
2021/01/03 09:28:30;;;;;;;6.65;2.75;;;17.00;97.00;;;;;;5073544;28;20105;-54
2021/01/03 09:31:24;;;;;;;9.32;2.78;;;17.10;97.10;;;;;;5058142;28;20406;-49
2021/01/03 09:33:55;;;;;;;10.45;2.95;;;17.20;97.30;;;;;;5057158;28;20127;-49
2021/01/03 09:36:43;;;;;;;16.55;4.38;;;17.20;97.40;;;;;;5065941;28;20064;-50
2021/01/03 09:39:32;;;;;;;13.05;3.70;;;17.00;97.40;;;;;;5051992;28;20044;-47
2021/01/03 09:42:32;;;;;;;16.52;4.72;;;17.00;97.80;;;;;;5068909;28;20040;-47
2021/01/03 09:45:20;;;;;;;12.80;3.47;;;17.00;97.70;;;;;;5048252;28;20051;-47
2021/01/03 09:47:49;;;;;;;6.00;2.63;;;16.90;97.70;;;;;;5033140;28;20052;-47
2021/01/03 09:50:33;;;;;;;11.18;4.53;;;16.90;97.80;;;;;;5059078;28;20059;-47
2021/01/03 09:53:27;;;;;;;11.52;5.47;;;17.00;98.10;;;;;;5055841;28;20049;-49
2021/01/03 09:56:29;;;;;;;10.32;4.80;;;17.20;98.20;;;;;;5063390;28;20495;-47
2021/01/03 09:58:56;;;;;;;5.85;2.88;;;17.20;98.20;;;;;;5058399;28;20086;-51
2021/01/03 10:01:36;;;;;;;14.27;3.78;;;17.30;98.20;;;;;;5065714;28;20059;-52
2021/01/03 10:04:24;;;;;;;10.30;4.95;;;17.30;98.30;;;;;;5087617;28;20055;-52
2021/01/03 10:07:08;;;;;;;12.02;4.95;;;17.50;98.40;;;;;;5028448;28;20059;-52
2021/01/03 10:09:35;;;;;;;14.57;4.38;;;17.30;98.50;;;;;;5079538;28;20055;-49
2021/01/03 10:12:25;;;;;;;11.35;4.55;;;17.30;98.80;;;;;;5072160;28;20441;-54
2021/01/03 10:15:06;;;;;;;11.00;4.40;;;17.40;98.70;;;;;;5087250;28;20052;-48
2021/01/03 10:17:34;;;;;;;11.15;3.45;;;17.40;98.70;;;;;;5053615;28;20099;-58
2021/01/03 10:20:15;;;;;;;11.63;4.93;;;17.40;98.30;;;;;;5058094;28;20053;-57
2021/01/03 10:22:44;;;;;;;10.18;3.85;;;17.50;98.40;;;;;;5036052;28;20534;-52
2021/01/03 10:25:15;;;;;;;10.57;3.58;;;17.60;98.70;;;;;;5060134;28;20498;-55
2021/01/03 10:28:05;;;;;;;10.77;4.35;;;17.70;98.50;;;;;;5042880;28;20048;-61
2021/01/03 10:30:33;;;;;;;9.80;3.80;;;17.60;97.00;;;;;;5038118;28;20056;-60
2021/01/03 10:33:01;;;;;;;9.05;3.28;;;17.30;97.20;;;;;;5038392;28;20487;-60
2021/01/03 10:35:28;;;;;;;12.38;4.20;;;16.90;97.70;;;;;;5063920;28;20490;-61
2021/01/03 10:37:56;;;;;;;7.47;3.95;;;16.50;99.10;;;;;;5059420;28;20055;-60
2021/01/03 10:40:24;;;;;;;8.45;3.13;;;16.40;99.50;;;;;;5050274;28;20181;-60
2021/01/03 10:42:52;;;;;;;11.50;3.15;;;16.20;99.90;;;;;;5038735;28;20049;-60
2021/01/03 10:45:22;;;;;;;11.60;3.13;;;16.10;99.20;;;;;;5029803;28;20047;-60
2021/01/03 10:47:49;;;;;;;9.52;3.17;;;16.20;98.40;;;;;;5075260;28;20452;-60
2021/01/03 10:50:19;;;;;;;8.48;3.30;;;16.10;98.40;;;;;;5050894;28;20040;-59
2021/01/03 10:52:47;;;;;;;8.60;3.15;;;16.00;98.50;;;;;;5039094;28;20052;-60
2021/01/03 10:55:19;;;;;;;9.70;3.78;;;16.00;98.90;;;;;;5061593;28;20080;-60
2021/01/03 10:57:46;;;;;;;13.05;3.63;;;15.90;99.30;;;;;;5075546;28;20134;-60
2021/01/03 11:00:15;;;;;;;13.52;3.80;;;15.90;99.70;;;;;;5068021;28;20139;-60
2021/01/03 11:02:43;;;;;;;11.18;3.63;;;15.90;99.70;;;;;;5054929;28;20069;-60
2021/01/03 11:05:13;;;;;;;7.00;2.65;;;15.90;99.60;;;;;;5028309;28;20048;-60
2021/01/03 11:07:40;;;;;;;8.38;3.20;;;15.80;99.50;;;;;;5075152;28;20511;-60
2021/01/03 11:10:09;;;;;;;15.73;5.50;;;15.80;99.60;;;;;;5052304;28;20512;-59
2021/01/03 11:12:37;;;;;;;9.73;3.80;;;15.90;99.90;;;;;;5054971;28;20554;-60
2021/01/03 11:15:07;;;;;;;8.13;4.15;;;15.90;99.90;;;;;;5042840;28;20051;-60
2021/01/03 11:17:44;;;;;;;9.50;3.95;;;16.20;99.90;;;;;;5052857;28;20045;-60
2021/01/03 11:20:13;;;;;;;12.85;5.07;;;16.40;99.30;;;;;;5043306;28;20498;-60
2021/01/03 11:22:41;;;;;;;8.82;3.20;;;16.60;99.10;;;;;;5075522;28;20444;-60
2021/01/03 11:25:11;;;;;;;13.30;5.30;;;16.60;99.00;;;;;;5068699;28;20044;-59
2021/01/03 11:27:38;;;;;;;12.38;4.38;;;16.60;99.40;;;;;;5072839;28;20052;-60
2021/01/03 11:30:07;;;;;;;14.27;4.28;;;16.40;99.40;;;;;;5060526;28;20060;-60
2021/01/03 11:32:35;;;;;;;9.80;3.55;;;16.30;99.90;;;;;;5018481;28;20049;-60
2021/01/03 11:35:04;;;;;;;10.60;3.42;;;16.50;99.70;;;;;;5074912;28;20067;-60
2021/01/03 11:37:31;;;;;;;9.75;2.90;;;16.60;99.60;;;;;;5058179;28;20051;-60
2021/01/03 11:39:59;;;;;;;9.15;2.95;;;16.80;99.50;;;;;;5068922;28;20456;-60
2021/01/03 11:42:37;;;;;;;8.48;3.10;;;16.90;99.30;;;;;;5072607;28;20049;-60
2021/01/03 11:45:08;;;;;;;8.00;3.95;;;16.90;98.40;;;;;;5078151;28;20056;-61
2021/01/03 11:47:36;;;;;;;12.27;4.07;;;16.70;98.80;;;;;;5051374;28;20053;-60
2021/01/03 11:50:05;;;;;;;14.38;3.85;;;16.70;99.10;;;;;;5057207;28;20049;-61
2021/01/03 11:52:33;;;;;;;14.02;4.45;;;16.70;98.80;;;;;;5050997;28;20053;-60
2021/01/03 11:55:01;;;;;;;9.70;3.20;;;16.60;99.00;;;;;;5056006;28;20043;-60
2021/01/03 11:57:29;;;;;;;15.10;4.40;;;16.60;99.20;;;;;;5057076;28;20482;-60
2021/01/03 11:59:56;;;;;;;8.70;3.60;;;16.70;98.80;;;;;;5050950;28;20044;-60
2021/01/03 12:02:23;;;;;;;11.23;3.65;;;16.70;98.50;;;;;;5055169;28;20487;-60
2021/01/03 12:04:51;;;;;;;10.25;3.28;;;16.70;97.10;;;;;;5059613;28;20072;-59
2021/01/03 12:07:19;;;;;;;9.43;4.05;;;16.70;97.40;;;;;;5090427;28;20060;-61
2021/01/03 12:09:49;;;;;;;7.60;3.15;;;16.80;97.20;;;;;;5067256;28;20440;-60
2021/01/03 12:12:21;;;;;;;6.25;3.13;;;16.80;96.80;;;;;;5055958;28;20098;-59
2021/01/03 12:14:49;;;;;;;11.43;4.30;;;16.80;96.90;;;;;;5043092;28;20525;-60
2021/01/03 12:17:21;;;;;;;7.03;2.10;;;16.80;96.00;;;;;;5089922;28;20448;-59
2021/01/03 12:19:50;;;;;;;4.93;1.92;;;16.80;96.30;;;;;;5085192;28;20055;-60
2021/01/03 12:22:19;;;;;;;6.32;2.17;;;16.80;95.30;;;;;;5055947;28;20053;-60
2021/01/03 12:24:47;;;;;;;4.65;2.97;;;16.80;95.50;;;;;;5042308;28;20044;-60
2021/01/03 12:27:17;;;;;;;5.03;2.47;;;16.80;95.40;;;;;;5074740;28;20059;-60
2021/01/03 12:29:44;;;;;;;12.52;3.72;;;16.70;95.60;;;;;;5070545;28;20044;-60
2021/01/03 12:32:13;;;;;;;7.30;2.65;;;16.60;95.50;;;;;;5059677;28;20045;-60
2021/01/03 12:34:41;;;;;;;8.75;3.20;;;16.50;95.90;;;;;;5062265;28;20049;-60
2021/01/03 12:37:18;;;;;;;4.65;2.00;;;16.60;96.10;;;;;;5073946;28;20043;-60
2021/01/03 12:39:46;;;;;;;12.75;2.75;;;16.50;95.50;;;;;;5088513;28;20040;-60
2021/01/03 12:42:17;;;;;;;17.35;4.20;;;16.50;96.00;;;;;;5058767;28;20052;-59
2021/01/03 12:44:48;;;;;;;9.95;3.75;;;16.40;96.70;;;;;;5062103;28;20056;-60
2021/01/03 12:47:17;;;;;;;13.07;2.97;;;16.40;96.80;;;;;;5057162;28;20406;-60
2021/01/03 12:49:44;;;;;;;5.93;2.85;;;16.40;96.60;;;;;;5070253;28;20052;-60
2021/01/03 12:52:12;;;;;;;15.07;4.00;;;16.30;97.20;;;;;;5059486;28;20483;-60
2021/01/03 12:54:40;;;;;;;8.55;3.08;;;16.30;97.40;;;;;;5045465;28;20083;-59
2021/01/03 12:57:08;;;;;;;10.00;3.45;;;16.40;97.90;;;;;;5072946;28;20084;-60
2021/01/03 12:59:35;;;;;;;7.28;2.45;;;16.40;97.50;;;;;;5069881;28;20055;-60
2021/01/03 13:02:04;;;;;;;9.93;3.15;;;16.40;98.00;;;;;;5060033;28;20500;-60
2021/01/03 13:04:52;;;;;;;7.30;2.60;;;16.20;98.30;;;;;;5064571;28;20513;-59
2021/01/03 13:07:19;;;;;;;8.93;2.20;;;16.10;98.50;;;;;;5058050;28;20044;-60
2021/01/03 13:09:47;;;;;;;7.60;3.20;;;16.00;98.20;;;;;;5070520;28;20052;-60
2021/01/03 13:12:14;;;;;;;8.18;2.72;;;15.90;98.60;;;;;;5058483;28;20044;-60
2021/01/03 13:14:41;;;;;;;8.90;2.15;;;15.90;99.00;;;;;;5061232;28;20383;-60
2021/01/03 13:17:09;;;;;;;9.80;3.42;;;15.90;99.10;;;;;;5072515;28;20052;-60
2021/01/03 13:19:36;;;;;;;9.10;3.88;;;16.00;98.40;;;;;;5088223;28;20097;-59